Gwinn, MI

6:00 PM EST en Diciembre 20, 2014 (GMT -0500)
Sawyer International | Change Station
CLOSE
Current Station
Aeropuerto
Location: Gwinn,
Altura: 1220 ft
Estaciones meteorológicas cercanas

Alt 1220 ft 46.34 °N, 87.40 °W | Updated 14 minutes ago

Nublado
Nublado
25 ° F
Sensación térmica 17 ° F
N
7
Viento Variable Viento desde Sur

Hoy
Alta -- | Baja -- ° F
--% Posibilidad de precipitaciones
Ayer
Alta -- | Baja -- ° F
Precip. -- pul
8:29 AM 5:05 PM
Creciente menguante, 2% visible
Presión 30.18 pul
Visibilidad 10.0 Millas
Nubes Muy nublado 1600 ft
Nublado 2500 ft
Vientos helados 17 ° F
Punto de rocío 23 ° F
Humedad 93%
Precipitaciones 0.00 pul
Espesor de la nieve No disponible.
UV 0 de una escala de 12
Polen .10 de una escala de 12
Calidad del aire No disponible.
Flu Activity No disponible.
METAR KSAW 202246Z 19006KT 10SM BKN016 OVC025 M04/M05 A3018

More Conditions Fewer Conditions

Presión 30.18 pul
Visibilidad 10.0 Millas
Nubes Muy nublado 1600 ft
Nublado 2500 ft
Vientos helados 17 ° F
Punto de rocío 23 ° F
Humedad 93%
Precipitaciones 0.00 pul
Espesor de la nieve No disponible.
UV 0 de una escala de 12
Polen .10 de una escala de 12
Calidad del aire No disponible.
Flu Activity No disponible.
METAR KSAW 202246Z 19006KT 10SM BKN016 OVC025 M04/M05 A3018

More Conditions Fewer Conditions

10-Day Weather Forecast

Almanac

Astronomía

Dec. 20, 2014 Salida Puesta
Hora real
Crepúsculo civil
Crepúsculo náutico
Crepúsculo astronómico
Luna
Horas de luz
Horas de luz
Tomorrow will be .
, % of the Moon is Illuminated

Extremos de hoy

Máximos del estado Bajos del estado

Community

WunderPhotos

Upload Photos

1,779,297 ¡fotos cargadas!

WunderBlogs® & News

Nearby

Calidad del aire

  Calidad del aire Índice AQ Contaminante
Not available.

Grosos de nieve

Estación Profundido Altura

Actividad de terremotos

Ciudad Distance Mag. Tiempo y dato
Magnitud mínima muestra es 2,5.

Temperaturas de aguas costeras

Lugar Temperatura

Estaciones meteorológicas cercanas